createdAt,value
2023-05-06T00:01:12.908Z,6.9
2023-05-06T00:13:26.720Z,9
2023-05-06T00:26:42.918Z,5.7
2023-05-06T00:28:44.737Z,6.7
2023-05-06T00:34:53.276Z,12.6
2023-05-06T00:38:56.820Z,9.4
2023-05-06T00:40:58.595Z,7.5
2023-05-06T00:49:08.885Z,7.9
2023-05-06T00:51:10.658Z,6.1
2023-05-06T00:55:14.181Z,8.3
2023-05-06T00:57:15.950Z,8.2
2023-05-06T00:59:17.732Z,8.6
2023-05-06T01:01:19.497Z,7.1
2023-05-06T01:03:24.557Z,7.6
2023-05-06T01:05:26.291Z,8.8
2023-05-06T01:07:28.015Z,8
2023-05-06T01:09:29.782Z,8.7
2023-05-06T01:11:31.525Z,8.4
2023-05-06T01:13:33.325Z,9.3
2023-05-06T01:15:35.057Z,10.3
2023-05-06T01:21:43.541Z,9.4
2023-05-06T01:24:12.120Z,9.1
2023-05-06T01:38:27.667Z,6.5
2023-05-06T01:40:29.441Z,7.2
2023-05-06T01:44:36.214Z,8.2
2023-05-06T01:46:38.054Z,8.4
2023-05-06T01:48:39.727Z,8.1
2023-05-06T01:50:41.494Z,8.9
2023-05-06T01:54:45.006Z,8.8
2023-05-06T01:58:51.793Z,7.3
2023-05-06T02:00:53.553Z,7.5
2023-05-06T02:02:55.435Z,7.6
2023-05-06T02:09:00.610Z,7.6
2023-05-06T02:15:09.472Z,8
2023-05-06T02:17:10.914Z,7.5
2023-05-06T02:18:13.398Z,7.7
2023-05-06T02:28:25.456Z,8.4
2023-05-06T02:30:27.231Z,8.2
2023-05-06T02:32:29.019Z,8.7
2023-05-06T02:34:30.745Z,8.2
2023-05-06T02:38:34.250Z,9.5
2023-05-06T02:40:39.275Z,9.6
2023-05-06T02:42:41.018Z,9.5
2023-05-06T02:44:42.865Z,10.7
2023-05-06T02:46:44.551Z,11.4
2023-05-06T02:54:54.808Z,12.2
2023-05-06T02:58:58.340Z,10.8
2023-05-06T03:01:00.277Z,12.1
2023-05-06T03:09:10.400Z,11.9
2023-05-06T03:13:13.974Z,11.1
2023-05-06T03:14:16.423Z,11.8
2023-05-06T03:16:18.231Z,10.9
2023-05-06T03:18:19.960Z,12.4
2023-05-06T03:20:21.769Z,10.9
2023-05-06T03:26:30.262Z,8.6
2023-05-06T03:28:32.062Z,11.3
2023-05-06T03:30:33.783Z,9.1
2023-05-06T03:32:35.588Z,9.4
2023-05-06T03:42:47.619Z,8.1
2023-05-06T03:44:49.408Z,8.8
2023-05-06T03:46:51.192Z,8.2
2023-05-06T03:48:52.914Z,8.2
2023-05-06T03:50:57.927Z,8.1
2023-05-06T04:01:08.266Z,8.7
2023-05-06T04:03:10.126Z,9.8
2023-05-06T04:07:16.814Z,10
2023-05-06T04:09:18.598Z,10
2023-05-06T04:10:21.082Z,9.2
2023-05-06T04:16:26.393Z,10.6
2023-05-06T04:26:38.419Z,10.8
2023-05-06T04:28:40.160Z,12.3
2023-05-06T04:30:41.915Z,13
2023-05-06T04:32:46.981Z,11.5
2023-05-06T04:34:48.652Z,11.7
2023-05-06T04:36:50.435Z,13.7
2023-05-06T04:40:53.933Z,11.7
2023-05-06T04:42:55.703Z,12.4
2023-05-06T04:44:57.454Z,11.4
2023-05-06T04:49:04.196Z,11
2023-05-06T04:57:11.206Z,14.1
2023-05-06T05:01:17.976Z,13.4
2023-05-06T05:09:51.793Z,10.6
2023-05-06T05:14:00.219Z,13.8
2023-05-06T05:16:00.315Z,12.8
2023-05-06T05:20:03.819Z,11.6
2023-05-06T05:22:05.561Z,12.5
2023-05-06T05:24:07.320Z,11.7
2023-05-06T05:26:09.063Z,11.9
2023-05-06T05:28:14.069Z,11
2023-05-06T05:32:17.561Z,11.6
2023-05-06T05:34:19.309Z,10.5
2023-05-06T05:36:21.115Z,11.7
2023-05-06T05:38:22.831Z,11.8
2023-05-06T05:40:24.582Z,11
2023-05-06T05:46:33.156Z,11.5
2023-05-06T05:48:34.859Z,11.2
2023-05-06T05:56:45.157Z,9.6
2023-05-06T05:58:46.902Z,10.6
2023-05-06T06:03:53.144Z,8.7
2023-05-06T06:05:54.731Z,8.7
2023-05-06T06:07:56.502Z,9.9
2023-05-06T06:12:03.297Z,8.1
2023-05-06T06:14:05.085Z,7.6
2023-05-06T06:16:06.880Z,7.1
2023-05-06T06:18:08.729Z,7.5
2023-05-06T06:22:12.221Z,6.3
2023-05-06T06:24:17.316Z,6.3
2023-05-06T06:26:19.134Z,6.2
2023-05-06T06:28:20.907Z,6.5
2023-05-06T06:30:22.614Z,6.6
2023-05-06T06:32:24.464Z,5.7
2023-05-06T06:34:26.106Z,5.4
2023-05-06T06:38:32.657Z,7.5
2023-05-06T06:42:36.049Z,5.7
2023-05-06T06:44:37.753Z,5.2
2023-05-06T06:46:39.424Z,6.7
2023-05-06T06:50:42.803Z,5.8
2023-05-06T06:52:47.651Z,5.5
2023-05-06T06:54:49.352Z,5.9
2023-05-06T06:59:55.126Z,6.1
2023-05-06T07:06:03.355Z,7.6
2023-05-06T07:08:05.040Z,6.3
2023-05-06T07:18:13.510Z,6.6
2023-05-06T07:20:18.355Z,6.4
2023-05-06T07:22:20.000Z,6.5
2023-05-06T07:30:26.873Z,7.1
2023-05-06T07:32:28.516Z,7.2
2023-05-06T07:34:33.352Z,7.9
2023-05-06T07:36:35.292Z,6.7
2023-05-06T07:40:38.467Z,6.8
2023-05-06T07:42:42.646Z,7.1
2023-05-06T07:44:41.834Z,7.4
2023-05-06T07:48:48.380Z,8.8
2023-05-06T07:50:50.105Z,8.5
2023-05-06T07:52:51.817Z,8.1
2023-05-06T07:53:54.227Z,8
2023-05-06T07:59:59.300Z,7.6
2023-05-06T08:04:05.930Z,7.6
2023-05-06T08:06:07.554Z,8.7
2023-05-06T08:08:09.274Z,8.2
2023-05-06T08:10:11.005Z,8.8
2023-05-06T08:14:14.345Z,7.6
2023-05-06T08:16:19.241Z,8.3
2023-05-06T08:18:22.775Z,9.1
2023-05-06T08:20:22.654Z,10
2023-05-06T08:22:24.368Z,9
2023-05-06T08:26:28.301Z,10
2023-05-06T08:30:34.787Z,9.1
2023-05-06T08:32:36.511Z,8.8
2023-05-06T08:34:38.198Z,10.3
2023-05-06T08:36:39.880Z,9.5
2023-05-06T08:38:41.556Z,8.8
2023-05-06T08:40:43.272Z,9.1
2023-05-06T08:44:49.809Z,9.1
2023-05-06T08:46:51.500Z,9.5
2023-05-06T08:48:53.214Z,9.2
2023-05-06T08:51:21.954Z,8.6
2023-05-06T08:53:23.230Z,9.4
2023-05-06T08:55:24.922Z,10.8
2023-05-06T08:57:29.742Z,9
2023-05-06T08:59:31.444Z,9
2023-05-06T09:05:36.521Z,9.1
2023-05-06T09:15:48.082Z,8.7
2023-05-06T09:21:53.158Z,8.4
2023-05-06T09:23:54.802Z,8.1
2023-05-06T09:25:59.682Z,9
2023-05-06T09:36:08.032Z,14.7
2023-05-06T09:38:09.782Z,12.2
2023-05-06T09:42:16.181Z,7.5
2023-05-06T09:44:17.838Z,7.9
2023-05-06T09:45:20.241Z,7.9
2023-05-06T09:47:23.503Z,8.2
2023-05-06T09:49:25.055Z,6.9
2023-05-06T09:51:26.695Z,5.7
2023-05-06T09:53:31.541Z,5.8
2023-05-06T09:55:33.197Z,6
2023-05-06T09:57:34.822Z,8.2
2023-05-06T09:59:36.477Z,6.4
2023-05-06T10:01:38.193Z,5.4
2023-05-06T10:03:39.977Z,5.7
2023-05-06T10:07:46.255Z,6.8
2023-05-06T10:09:47.897Z,6.6
2023-05-06T10:11:49.580Z,5.2
2023-05-06T10:13:51.206Z,6
2023-05-06T10:15:52.874Z,5.6
2023-05-06T10:19:56.148Z,5.3
2023-05-06T10:24:02.608Z,6
2023-05-06T10:26:04.268Z,3.3
2023-05-06T10:28:06.663Z,4.2
2023-05-06T10:30:07.543Z,4
2023-05-06T10:32:09.187Z,4.3
2023-05-06T10:34:10.885Z,3.7
2023-05-06T10:36:15.646Z,5.2
2023-05-06T10:38:17.277Z,3.7
2023-05-06T10:40:18.940Z,3.6
2023-05-06T10:45:24.618Z,5.2
2023-05-06T10:49:31.065Z,4.3
2023-05-06T10:53:34.344Z,4.7
2023-05-06T10:55:35.996Z,5.2
2023-05-06T10:57:37.624Z,3.8
2023-05-06T10:59:39.257Z,4.1
2023-05-06T11:01:41.016Z,3.6
2023-05-06T11:05:47.385Z,4
2023-05-06T11:09:50.700Z,3.6
2023-05-06T11:11:52.385Z,2.8
2023-05-06T11:13:54.017Z,4.6
2023-05-06T11:15:55.708Z,3.5
2023-05-06T11:18:00.556Z,3.8
2023-05-06T11:20:02.241Z,3.5
2023-05-06T11:22:03.865Z,3.6
2023-05-06T11:24:05.497Z,2.8
2023-05-06T11:26:07.144Z,3.3
2023-05-06T11:28:08.815Z,4.7
2023-05-06T11:30:10.687Z,3.7
2023-05-06T11:32:15.331Z,3.8
2023-05-06T11:34:16.968Z,4.8
2023-05-06T11:36:18.608Z,5
2023-05-06T11:47:32.585Z,3.2
2023-05-06T11:49:36.192Z,3.7
2023-05-06T11:51:35.869Z,2.1
2023-05-06T11:53:37.548Z,3
2023-05-06T11:55:39.226Z,3.9
2023-05-06T12:01:47.402Z,2.3
2023-05-06T12:03:49.271Z,1.9
2023-05-06T12:05:50.762Z,2.8
2023-05-06T12:07:52.421Z,2.9
2023-05-06T12:09:54.076Z,2.8
2023-05-06T12:14:00.586Z,2.2
2023-05-06T12:22:07.260Z,2.5
2023-05-06T12:26:10.541Z,1.9
2023-05-06T12:34:47.013Z,2.3
2023-05-06T12:55:09.905Z,1.8
2023-05-06T12:57:11.589Z,1.4
2023-05-06T12:59:13.226Z,1.9
2023-05-06T13:01:14.935Z,2.4
2023-05-06T13:03:16.719Z,2.1
2023-05-06T13:13:28.024Z,2.4
2023-05-06T13:15:29.688Z,1.8
2023-05-06T13:17:31.382Z,2.3
2023-05-06T13:19:33.555Z,2.6
2023-05-06T13:23:39.514Z,4.4
2023-05-06T13:28:45.301Z,2
2023-05-06T13:30:46.966Z,1.6
2023-05-06T13:34:50.280Z,1.9
2023-05-06T13:36:55.101Z,2
2023-05-06T13:47:03.477Z,1.8
2023-05-06T13:49:05.163Z,1.9
2023-05-06T13:51:09.974Z,1.5
2023-05-06T13:53:11.686Z,2.3
2023-05-06T13:55:13.382Z,1.8
2023-05-06T13:57:15.024Z,2.8
2023-05-06T13:59:16.695Z,2
2023-05-06T14:01:18.403Z,2.9
2023-05-06T14:03:20.058Z,1.6
2023-05-06T14:05:24.964Z,2.6
2023-05-06T14:07:26.576Z,2.1
2023-05-06T14:09:28.244Z,3.9
2023-05-06T14:11:29.942Z,2.5
2023-05-06T14:13:31.599Z,3
2023-05-06T14:15:33.281Z,3.1
2023-05-06T14:17:34.967Z,3.6
2023-05-06T14:19:39.803Z,2.1
2023-05-06T14:21:41.478Z,9.2
2023-05-06T14:23:43.160Z,4
2023-05-06T14:24:45.558Z,3.5
2023-05-06T14:28:48.930Z,2.3
2023-05-06T14:30:50.627Z,2.6
2023-05-06T14:41:02.190Z,3
2023-05-06T14:45:05.551Z,1.6
2023-05-06T14:47:10.433Z,2.5
2023-05-06T14:49:12.097Z,1.8
2023-05-06T14:51:13.787Z,2
2023-05-06T14:53:15.490Z,1.8
2023-05-06T14:57:18.846Z,1.8
2023-05-06T14:59:20.512Z,2.8
2023-05-06T15:03:27.054Z,2
2023-05-06T15:07:30.425Z,2.2
2023-05-06T15:11:33.798Z,1.8
2023-05-06T15:13:35.515Z,2.3
2023-05-06T15:15:40.320Z,2.3
2023-05-06T15:17:42.048Z,2.1
2023-05-06T15:19:43.664Z,2
2023-05-06T15:20:46.102Z,1.8
2023-05-06T15:32:59.416Z,3.4
2023-05-06T15:41:07.658Z,2.4
2023-05-06T15:47:15.863Z,1.8
2023-05-06T15:51:19.234Z,2.6
2023-05-06T15:53:20.906Z,1.9
2023-05-06T15:55:25.102Z,3.1
2023-05-06T16:05:34.192Z,3.4
2023-05-06T16:07:35.896Z,2.4
2023-05-06T16:09:37.580Z,3.7
2023-05-06T16:11:42.431Z,4.4
2023-05-06T16:13:44.127Z,3.4
2023-05-06T16:18:14.136Z,2.2
2023-05-06T16:20:15.813Z,2.3
2023-05-06T16:26:24.066Z,2.5
2023-05-06T16:38:37.437Z,3
2023-05-06T16:42:40.885Z,4
2023-05-06T16:44:42.583Z,4.1
2023-05-06T16:46:44.374Z,3.6
2023-05-06T17:05:02.793Z,2.2
2023-05-06T17:07:07.675Z,3
2023-05-06T17:11:11.095Z,3.6
2023-05-06T17:12:13.517Z,2.7
2023-05-06T17:18:18.643Z,2.6
2023-05-06T17:20:23.488Z,2.9
2023-05-06T17:32:33.770Z,4.2
2023-05-06T17:38:42.027Z,7.5
2023-05-06T17:42:45.443Z,9.4
2023-05-06T17:44:47.161Z,9.7
2023-05-06T17:46:48.887Z,9.7
2023-05-06T17:48:53.712Z,11.3
2023-05-06T17:50:55.414Z,9.1
2023-05-06T17:57:00.552Z,12.6
2023-05-06T17:59:02.257Z,9.6
2023-05-06T18:01:03.969Z,16.3
2023-05-06T18:07:12.227Z,24.7
2023-05-06T18:08:14.672Z,9
2023-05-06T18:12:18.067Z,13.2
2023-05-06T18:14:19.780Z,10.5
2023-05-06T18:16:24.715Z,11
2023-05-06T18:22:29.721Z,10.8
2023-05-06T18:24:31.449Z,11.1
2023-05-06T18:26:43.868Z,9.1
2023-05-06T18:28:34.843Z,10.6
2023-05-06T18:30:39.701Z,12.1
2023-05-06T18:32:41.462Z,11.6
2023-05-06T18:34:43.133Z,11.6
2023-05-06T18:36:44.921Z,11.2
2023-05-06T18:38:46.612Z,9.5
2023-05-06T18:42:50.053Z,4.4
2023-05-06T18:44:54.879Z,6.4
2023-05-06T18:46:56.596Z,3.1
2023-05-06T18:51:00.191Z,4.3
2023-05-06T18:53:02.004Z,3.9
2023-05-06T18:55:03.818Z,3.4
2023-05-06T19:01:12.617Z,3.1
2023-05-06T19:14:29.122Z,2.6
2023-05-06T19:18:32.747Z,2.5
2023-05-06T19:20:34.569Z,4.9
2023-05-06T19:22:36.374Z,4
2023-05-06T19:24:38.207Z,3.3
2023-05-06T19:26:43.227Z,3.8
2023-05-06T19:28:45.064Z,2.9
2023-05-06T19:30:46.889Z,4.4
2023-05-06T19:38:53.990Z,3.7
2023-05-06T19:40:58.842Z,4.5
2023-05-06T19:43:00.539Z,4.1
2023-05-06T19:45:02.271Z,3.3
2023-05-06T19:47:03.974Z,3.8
2023-05-06T19:49:05.688Z,3
2023-05-06T19:51:07.379Z,4.1
2023-05-06T19:53:09.100Z,2.9
2023-05-06T19:59:17.372Z,3.1
2023-05-06T20:01:45.750Z,3.7
2023-05-06T20:03:47.518Z,4.7
2023-05-06T20:05:49.241Z,14
2023-05-06T20:07:54.285Z,3.3
2023-05-06T20:09:56.128Z,3.5
2023-05-06T20:13:59.605Z,3.2
2023-05-06T20:16:01.467Z,3.2
2023-05-06T20:18:03.255Z,4.1
2023-05-06T20:28:15.411Z,5.7
2023-05-06T20:40:29.410Z,5.4
2023-05-06T20:44:32.997Z,11
2023-05-06T20:48:36.606Z,3.2
2023-05-06T20:52:43.254Z,4.5
2023-05-06T20:54:44.971Z,4.4
2023-05-06T20:55:47.435Z,3.9
2023-05-06T20:57:49.076Z,4.9
2023-05-06T21:10:03.163Z,5
2023-05-06T21:12:04.968Z,4.5
2023-05-06T21:14:06.777Z,4.6
2023-05-06T21:16:08.564Z,4
2023-05-06T21:18:13.648Z,5.7
2023-05-06T21:22:17.212Z,3.3
2023-05-06T21:24:19.011Z,4.9
2023-05-06T21:26:20.838Z,5.2
2023-05-06T21:28:22.640Z,5.1
2023-05-06T21:30:25.994Z,4.6
2023-05-06T21:32:31.033Z,5.7
2023-05-06T21:34:32.777Z,5.1
2023-05-06T21:38:36.409Z,5.8
2023-05-06T21:40:38.168Z,7.2
2023-05-06T21:48:48.623Z,5.4
2023-05-06T21:51:52.932Z,6.8
2023-05-06T21:53:54.740Z,5.3
2023-05-06T21:55:56.536Z,6.7
2023-05-06T21:57:58.338Z,6
2023-05-06T22:00:03.430Z,7
2023-05-06T22:02:05.240Z,7.2
2023-05-06T22:04:07.098Z,6.4
2023-05-06T22:06:08.796Z,10.7
2023-05-06T22:10:12.374Z,8.5
2023-05-06T22:14:21.997Z,8.3
2023-05-06T22:16:21.049Z,6.4
2023-05-06T22:18:22.796Z,7.6
2023-05-06T22:20:24.609Z,6.8
2023-05-06T22:22:26.399Z,7.1
2023-05-06T22:24:28.207Z,8.3
2023-05-06T22:26:29.983Z,6.8
2023-05-06T22:28:35.029Z,8.4
2023-05-06T22:30:36.840Z,8.9
2023-05-06T22:32:38.611Z,8
2023-05-06T22:34:40.407Z,7.4
2023-05-06T22:36:42.214Z,7.4
2023-05-06T22:38:43.999Z,7.2
2023-05-06T22:40:45.821Z,7.3
2023-05-06T22:42:50.860Z,9.1
2023-05-06T22:44:52.662Z,7.9
2023-05-06T22:49:58.680Z,7.6
2023-05-06T22:52:00.477Z,7.6
2023-05-06T22:54:02.283Z,7.6
2023-05-06T22:56:07.303Z,6.5
2023-05-06T22:58:09.098Z,7.9
2023-05-06T23:02:12.721Z,5.3
2023-05-06T23:04:14.573Z,7.1
2023-05-06T23:06:16.327Z,5.6
2023-05-06T23:08:18.138Z,6
2023-05-06T23:10:23.160Z,6.2
2023-05-06T23:12:24.955Z,6.2
2023-05-06T23:16:28.600Z,6.3
2023-05-06T23:22:33.960Z,6.3
2023-05-06T23:24:39.032Z,7
2023-05-06T23:28:42.591Z,6
2023-05-06T23:38:54.716Z,7.1
2023-05-06T23:40:56.514Z,6.8
2023-05-06T23:45:26.801Z,7.1
2023-05-06T23:47:28.600Z,5.9
2023-05-06T23:49:30.366Z,6.9
2023-05-06T23:51:35.414Z,6.3
2023-05-06T23:55:39.031Z,6.5
2023-05-06T23:57:40.809Z,6.8
2023-05-06T23:59:42.606Z,6.3
